Timeline UpdatesTrip UpdatesNews PostsPvt PostsTravel TipsAdmin PostsConv PostsFollowed PostsChat RequestsBlog PostsPNR Posts

Disclaimer
Search
 
 
Fri Apr 25, 2014 12:09:48 ISTHomeTrainsΣChainsAtlasPNRForumGalleryNewsFAQTripsMembersLoginFeedback
No Recent News for this Train
Other Trains in the News **new
Latest...
.
Mon Feb 03, 2014 (06:12PM)
⇐ Return Journey: Train# 56914

56913/Bangalore- Hubli Fast Passenger (UnReserved)

Jan 06 2014 (1:32PM)
Change Departure Station:
Change Arrival Station:
Post a Train Travel TipPost a Train Travel Tip **new
Post a Comment/Question/Picture/VideoPost a Comment/Question/Picture/Video
Pantry/Catering
✕ NO Pantry Car
✕ NO Catering
RSA - Rake Sharing
56916-56915-56914-56911-56912-56913; Entry# 411256
Rake/Coach Composition
2 SLR, 22 Unreserved Coaches, first 11 including 1 SLR will be detached at RRB(Birur Jn) and will run to SHIMOGA TOWN(SMET)
Loco
KJM WDM2/3a WDG3a
News    PNR    Forum    Time-Table    Availability    Fare Chart    Map    Arr/Dep History    Trips    Gallery    ΣChains    X/O    Timeline    
Travel Time: 11h 45m    42 halts    Distance: 470 km    Avg Speed: 40 km/hr
Type: Passenger
Zone: SWR/South Western
Departs @ 06:30 (Avg 5m late)
Platform# 10
SMTWTFS
Bangalore City Junction/SBC 
Arrives @ 18:15 (Avg 10m late)
Platform# ???
SMTWTFS
Hubli Junction/UBL 

42 halts. 64 intermediate Stations between Bangalore City Junction and Hubli Junction

Show ALL intermediate Stations  Show Old Time-Table

#CodeStation NameX/OArrivesAvgDepartsAvgHaltPFDay#KmSpeedElevZoneAddress
1SBC»Bangalore City Junction (10)»  -06:30+51010.042903mSWRBengaluru-560023, Karnataka
2MWMMalleswaram (2)X  06:34+1106:35+111m--12.828916mSWRBengaluru, Karnataka
3YPRYesvantpur Junction (6)X  06:41+1006:42+111m--15.654919mSWRTel:080-23371444, Karnataka
4BAWChik Banavar (3)O06:51-06:52-1m--113.657881mSWRBengaluru, Karnataka
5DBLDodbele  07:17+1107:18+111m3137.462907mSWRNational Highway 4, Karnataka
6KIATKyatsandra (4)  07:44+1007:45+101m--164.324841mSWRTumkur, Karnataka
7TKTumkur (3)  07:58+708:00+112m--169.537823mSWRTumkur, Karnataka
8GBBGubbi (1)X  08:29+1308:30+161m1187.654780mSWRGubbi, Karnataka
9AMSAAmmasandra (1)  08:59+1409:00+151m11113.857858mSWRTumkur Dist., Karnataka
10BSNBanasandra (1)  09:06+1509:07+171m11119.574851mSWRTumkur Dist., Karnataka
11ARGPAralaguppeX  09:11+2109:12+211m--1124.446843mSWRState Highway 74, Karnataka
12RDIKardi09:19+2109:20+241m--1129.846843mSWRKaradi Cross, Karnataka
13TTRTiptur (4)  09:34+2509:35+271m--1140.648860mSWRTiptur, Karnataka
14HVLHonnavalli Road (3)O  09:47+3009:48+301m--1150.279888mSWRNational Highway 206, Karnataka
15ASKArsikere Junction (3)X  10:00+3310:15+2715m--1166.162816mSWRArsikere, Karnataka
16BVRBanavar (2)X  10:30+3110:31+311m--1181.760790mSWRNH 73, Karnataka
17VNRDevanur (2)  10:38+3710:39+371m--1188.758757mSWRDevanur Railway Station, Karnataka
18DRUKadur Junction (3)XO  10:56+4010:57+411m--1205.215774mSWRKadur, Karnataka
19RRBBirur Junction (3)11:20+3111:50+3130m--1211.160802mSWRBirur, Karnataka
20AJPAjjampur (2)  12:08+3312:09+341m--1229.259752mSWRAjjampur, Karnataka
21SHVShivani  12:20+3712:21+391m--1239.960779mSWRShivani Rd, Karnataka
22HSDHosdurga Road (1)  12:31+4112:32+451m11249.955765mSWRChitradurga Dist., Karnataka
23RGIRamgiri  12:44+4612:45+491m--1261.049705mSWRShivani Rd, Karnataka
24HLKHolalkereX  12:56+4912:57+521m--1270.046661mSWRNational Highway 13, Karnataka
25JRUChikjajur Junction (3)  13:10+5113:12+542m--1279.959677mSWRChikkajajur, Karnataka
26SLUSasaluX  13:22+5613:23+571m--1289.768660mSWRState Highway 47, Karnataka
27MYKMayakonda (2)  13:30+1:0013:31+1:011m--1297.661646mSWRState Highway 47, Karnataka
28KAGKodaganur  13:39+1:0313:40+1:041m--1305.832633mSWRState Highway 47, Karnataka
29DVGDavangere (2)  14:18+4714:20+502m--1326.031598mSWRDavanagere, Karnataka
30HRRHarihar (3)X  14:45+4314:50+535m--1338.954553mSWRHarihar, Karnataka
31CLIChalgeri (2)  15:01+5515:02+1:031m--1348.847574mSWRChalageri, Karnataka
32RNRRanibennur (3)X  15:19+1:0515:20+1:081m--1362.255583mSWRRanebennur, Karnataka
33DADDevargudda (2)  15:29+1:0915:30+1:101m--1370.468589mSWRDevaragudda, Karnataka
34BYDByadgi (2)  15:39+1:1315:40+1:141m--1380.744632mSWRNational Highway 4, Karnataka
35HVRHaveri (3)X  15:59+1:1016:00+1:131m--1394.848558mSWRHaveri, Karnataka
36KJGKarajgi (2)  16:09+1:1416:10+1:191m--1402.053550mSWRhaveri, Karnataka
37KVSKalsur  16:15+1:1516:16+1:151m--1406.438541mSWRNH 48, Karnataka
38SVNRSavanur (2)X  16:29+1:1516:30+1:161m--1414.657584mSWRState Highway 6, Karnataka
39YLGYalvigi (2)  16:39+1:1616:40+1:181m--1423.260621mSWRYalvigi, Karnataka
40KALSKalas Halt  16:46+1:1616:47+1:161m--1429.227663mSWRState Highway 6, Karnataka
41GDIGudgeri (2)  16:59+1:1617:00+1:191m--1434.648689mSWRGudgeri, Karnataka
42SNHSaunshi (2)  17:14+1:1817:15+1:191m--1445.936634mSWRSaunshi, Karnataka
43KNOKundgol (2)X  17:29+1:1317:30+1:131m--1454.221636mSWRKundgol, Karnataka
44UBL•Hubli Junction (5)•  18:15+10---1469.9-640mSWRHubli - 580020, Karnataka
Scroll to Top
Scroll to Bottom